Time;durP1;ratioP1;P1;durP2;ratioP2;P2;SDS_P1;SDS_P2;PMS_P1;PMS_P2;Temp;Humidity;BMP_temperature;BMP_pressure;BME280_temperature;BME280_humidity;BME280_pressure;Samples;Min_cycle;Max_cycle;Signal;HPM_P1;HPM_P2
2022/09/06 00:01:10;;;;;;;10.13;9.32;;;18.10;99.90;;;-141.84;61.77;20887.06;5092460;28;20630;-61
2022/09/06 00:03:39;;;;;;;10.70;9.60;;;18.00;99.90;;;-141.84;61.75;20903.34;5092188;28;20191;-61
2022/09/06 00:06:13;;;;;;;10.40;9.50;;;18.00;99.90;;;-141.84;61.83;20872.84;5092938;28;20199;-61
2022/09/06 00:08:44;;;;;;;10.35;9.40;;;18.00;99.90;;;-141.84;61.20;20901.31;5092466;28;20620;-60
2022/09/06 00:11:12;;;;;;;10.38;9.48;;;18.00;99.90;;;-141.84;61.63;20905.38;5092216;28;20311;-63
2022/09/06 00:13:41;;;;;;;10.57;9.57;;;18.00;99.90;;;-141.84;61.25;20935.88;5090892;28;20255;-62
2022/09/06 00:16:13;;;;;;;11.05;9.75;;;18.00;99.90;;;-141.84;61.15;20883.00;5091888;28;20306;-63
2022/09/06 00:18:42;;;;;;;10.15;9.18;;;18.00;99.90;;;-141.84;61.27;20895.19;5091977;28;20601;-61
2022/09/06 00:21:18;;;;;;;9.40;8.60;;;18.00;99.90;;;-141.84;61.18;20874.88;5092650;28;20296;-61
2022/09/06 00:23:46;;;;;;;10.60;9.50;;;18.00;99.90;;;-141.84;61.27;20895.19;5091751;28;20737;-62
2022/09/06 00:26:15;;;;;;;10.10;9.30;;;18.00;99.90;;;-141.84;61.93;20883.00;5092061;28;20307;-62
2022/09/06 00:28:43;;;;;;;10.35;9.45;;;17.90;99.90;;;-141.84;61.64;20850.47;5091766;28;20226;-62
2022/09/06 00:31:14;;;;;;;10.45;9.52;;;17.80;99.90;;;-141.84;61.95;20848.44;5091985;28;20215;-61
2022/09/06 00:33:43;;;;;;;9.80;8.95;;;17.80;99.90;;;-141.84;61.89;20858.59;5091846;28;20257;-62
2022/09/06 00:36:14;;;;;;;9.48;8.68;;;17.80;99.90;;;-141.84;62.07;20822.03;5092214;28;20227;-62
2022/09/06 00:38:42;;;;;;;10.27;9.38;;;17.80;99.90;;;-141.84;61.77;20852.50;5091434;28;20609;-61
2022/09/06 00:41:14;;;;;;;9.30;8.50;;;17.80;99.90;;;-141.84;61.81;20846.41;5091582;28;20224;-63
2022/09/06 00:43:43;;;;;;;10.23;9.30;;;17.80;99.90;;;-141.84;61.92;20840.31;5091454;28;20255;-62
2022/09/06 00:46:17;;;;;;;10.07;9.20;;;17.90;99.90;;;-141.84;61.46;20846.41;5091349;28;20243;-62
2022/09/06 00:48:49;;;;;;;9.63;8.82;;;17.80;99.90;;;-141.84;62.28;20822.03;5091853;28;20266;-61
2022/09/06 00:51:24;;;;;;;10.63;9.60;;;17.80;99.90;;;-141.84;61.36;20862.69;5092177;28;20278;-62
2022/09/06 00:53:52;;;;;;;10.25;9.23;;;17.80;99.90;;;-141.84;62.18;20830.16;5091705;28;20306;-62
2022/09/06 00:56:21;;;;;;;10.30;9.32;;;17.70;99.90;;;-141.84;61.94;20848.44;5091481;28;20230;-62
2022/09/06 00:58:50;;;;;;;9.50;8.70;;;17.70;99.90;;;-141.84;62.30;20801.69;5091130;28;20255;-62
2022/09/06 01:01:18;;;;;;;10.05;9.15;;;17.60;99.90;;;-141.84;62.70;20779.31;5091461;28;20736;-61
2022/09/06 01:03:46;;;;;;;10.07;9.10;;;17.60;99.90;;;-141.84;62.63;20777.28;5091217;28;20770;-62
2022/09/06 01:06:28;;;;;;;10.13;9.23;;;17.60;99.90;;;-141.84;62.86;20834.22;5091813;28;20299;-62
2022/09/06 01:09:10;;;;;;;9.70;8.80;;;17.50;99.90;;;-141.84;62.95;20791.53;5090965;28;20406;-61
2022/09/06 01:12:04;;;;;;;10.02;9.18;;;17.50;99.90;;;-141.84;63.05;20742.75;5091248;28;20271;-61
2022/09/06 01:14:51;;;;;;;10.45;9.45;;;17.40;99.90;;;-141.84;62.72;20767.13;5091227;28;20227;-61
2022/09/06 01:17:33;;;;;;;10.18;9.38;;;17.40;99.90;;;-141.84;62.93;20783.41;5091362;28;20307;-62
2022/09/06 01:20:32;;;;;;;10.23;9.27;;;17.40;99.90;;;-141.84;63.36;20752.91;5091114;28;20228;-62
2022/09/06 01:24:03;;;;;;;10.30;9.40;;;17.30;99.90;;;-141.84;63.78;20785.44;5091157;28;20620;-61
2022/09/06 01:27:34;;;;;;;9.98;9.18;;;17.30;99.90;;;-141.84;63.07;20736.63;5090506;28;20794;-62
2022/09/06 01:30:08;;;;;;;10.48;9.57;;;17.30;99.90;;;-141.84;63.03;20769.16;5078760;28;20220;-61
2022/09/06 01:32:53;;;;;;;10.82;9.60;;;17.30;99.90;;;-141.84;62.53;20799.66;5095137;28;20227;-61
2022/09/06 01:35:33;;;;;;;10.02;9.05;;;17.40;99.90;;;-141.84;62.85;20756.97;5094957;28;20220;-61
2022/09/06 01:38:02;;;;;;;10.73;9.73;;;17.40;99.90;;;-141.84;62.42;20777.28;5095285;28;20298;-61
2022/09/06 01:40:34;;;;;;;10.38;9.38;;;17.40;99.90;;;-141.84;62.11;20830.16;5094694;28;20259;-61
2022/09/06 01:43:04;;;;;;;9.70;8.85;;;17.40;99.90;;;-141.84;61.74;20824.06;5094997;28;20224;-62
2022/09/06 01:45:56;;;;;;;10.32;9.32;;;17.50;99.90;;;-141.84;61.89;20803.72;5094708;28;20534;-62
2022/09/06 01:48:47;;;;;;;9.85;9.05;;;17.50;99.90;;;-141.84;62.09;20763.06;5095578;28;20220;-62
2022/09/06 01:51:26;;;;;;;9.35;8.43;;;17.40;99.90;;;-141.84;62.58;20736.63;5095092;28;20844;-61
2022/09/06 01:54:26;;;;;;;9.60;8.75;;;17.40;99.90;;;-141.84;62.47;20744.78;5094653;28;20303;-62
2022/09/06 01:57:13;;;;;;;11.80;9.20;;;17.40;99.90;;;-141.84;62.10;20781.38;5094194;28;20299;-61
2022/09/06 02:00:01;;;;;;;9.48;8.60;;;17.30;99.90;;;-141.84;62.95;20734.59;5094763;28;20234;-62
2022/09/06 02:02:45;;;;;;;9.32;8.43;;;17.20;99.90;;;-141.84;62.61;20756.97;5094449;28;20230;-62
2022/09/06 02:05:23;;;;;;;9.68;8.60;;;17.20;99.90;;;-141.84;63.35;20708.19;5094445;28;20223;-61
2022/09/06 02:07:57;;;;;;;11.40;9.38;;;17.10;99.90;;;-141.84;62.78;20765.09;5094428;28;20243;-62
2022/09/06 02:10:33;;;;;;;9.98;8.98;;;17.10;99.90;;;-141.84;63.46;20716.31;5093550;28;20246;-62
2022/09/06 02:13:06;;;;;;;9.95;8.95;;;17.00;99.90;;;-141.84;63.44;20704.13;5094391;28;20288;-62
2022/09/06 02:15:38;;;;;;;10.38;8.40;;;17.00;99.90;;;-141.84;63.35;20712.25;5094730;28;20355;-63
2022/09/06 02:18:15;;;;;;;10.40;9.40;;;17.00;99.90;;;-141.84;63.61;20720.38;5094718;28;20806;-62
2022/09/06 02:20:51;;;;;;;9.98;8.95;;;16.90;99.90;;;-141.84;63.80;20746.81;5094305;28;20227;-61
2022/09/06 02:23:26;;;;;;;9.68;8.77;;;16.90;99.90;;;-141.84;64.34;20657.34;5093420;28;20223;-61
2022/09/06 02:26:01;;;;;;;9.80;8.90;;;16.80;99.90;;;-141.84;63.75;20691.91;5092717;28;20235;-61
2022/09/06 02:28:29;;;;;;;10.02;9.02;;;16.90;99.90;;;-141.84;63.85;20671.59;5093081;28;20250;-60
2022/09/06 02:31:03;;;;;;;9.30;8.50;;;16.80;99.90;;;-141.84;63.87;20665.50;5093006;28;20220;-61
2022/09/06 02:33:34;;;;;;;9.77;8.77;;;16.80;99.90;;;-141.84;64.34;20673.63;5093551;28;20188;-62
2022/09/06 02:36:08;;;;;;;10.57;9.52;;;16.80;99.90;;;-141.84;64.27;20655.31;5093136;28;20725;-62
2022/09/06 02:38:40;;;;;;;10.25;9.07;;;16.80;99.90;;;-141.84;63.85;20673.63;5092592;28;20310;-63
2022/09/06 02:41:09;;;;;;;9.63;8.73;;;16.90;99.90;;;-141.84;63.92;20657.34;5092007;28;20313;-61
2022/09/06 02:43:37;;;;;;;10.32;9.32;;;16.80;99.90;;;-141.84;63.69;20673.63;5092376;28;20710;-62
2022/09/06 02:46:05;;;;;;;9.15;8.35;;;16.90;99.90;;;-141.84;64.22;20669.56;5092320;28;20728;-62
2022/09/06 02:48:35;;;;;;;10.35;9.45;;;16.80;99.90;;;-141.84;64.28;20657.34;5093188;28;20207;-63
2022/09/06 02:51:04;;;;;;;10.68;9.60;;;16.80;99.90;;;-141.84;64.10;20679.72;5092722;28;20216;-60
2022/09/06 02:53:33;;;;;;;10.18;9.15;;;16.80;99.90;;;-141.84;64.26;20681.75;5092584;28;20302;-63
2022/09/06 02:56:02;;;;;;;10.02;9.18;;;16.80;99.90;;;-141.84;64.13;20691.91;5092268;28;20287;-64
2022/09/06 02:58:30;;;;;;;10.27;9.38;;;16.80;99.90;;;-141.84;64.20;20661.44;5092155;28;20629;-62
2022/09/06 03:00:58;;;;;;;10.07;9.07;;;16.80;99.90;;;-141.84;64.64;20647.19;5092284;28;20235;-63
2022/09/06 03:03:27;;;;;;;9.43;8.63;;;16.80;99.90;;;-141.84;65.18;20630.94;5092965;28;20216;-62
2022/09/06 03:05:56;;;;;;;9.98;9.07;;;16.70;99.90;;;-141.84;65.11;20653.28;5092139;28;20305;-62
2022/09/06 03:08:28;;;;;;;9.82;8.88;;;16.70;99.90;;;-141.84;65.38;20651.25;5092381;28;20220;-61
2022/09/06 03:10:56;;;;;;;9.73;8.93;;;16.70;99.90;;;-141.84;65.37;20630.94;5092277;28;20302;-62
2022/09/06 03:13:25;;;;;;;10.63;9.73;;;16.70;99.90;;;-141.84;65.09;20653.28;5092381;28;20243;-62
2022/09/06 03:15:56;;;;;;;9.65;8.85;;;16.70;99.90;;;-141.84;64.77;20618.72;5092479;28;20204;-62
2022/09/06 03:18:26;;;;;;;10.93;10.02;;;16.70;99.90;;;-141.84;65.74;20653.28;5092714;28;20655;-63
2022/09/06 03:20:56;;;;;;;9.70;8.80;;;16.60;99.90;;;-141.84;65.83;20614.66;5092032;28;20611;-63
2022/09/06 03:23:27;;;;;;;10.32;9.52;;;16.60;99.90;;;-141.84;65.63;20635.00;5055291;28;1053500;-62
2022/09/06 03:25:56;;;;;;;11.02;9.98;;;16.50;99.90;;;-141.84;66.13;20584.19;5093128;28;20281;-61
2022/09/06 03:28:24;;;;;;;10.30;9.40;;;16.50;99.90;;;-141.84;65.34;20657.34;5092859;28;20224;-62
2022/09/06 03:30:53;;;;;;;10.95;9.85;;;16.50;99.90;;;-141.84;65.83;20616.69;5092747;28;20671;-62
2022/09/06 03:33:21;;;;;;;9.98;9.07;;;16.50;99.90;;;-141.84;66.54;20569.94;5093246;28;20841;-60
2022/09/06 03:35:52;;;;;;;11.00;10.00;;;16.40;99.90;;;-141.84;66.54;20586.22;5092843;28;20728;-61
2022/09/06 03:38:23;;;;;;;10.60;9.57;;;16.50;99.90;;;-141.84;66.56;20576.03;5092847;28;20251;-63
2022/09/06 03:40:52;;;;;;;10.75;9.85;;;16.40;99.90;;;-141.84;66.33;20626.88;5092750;28;20251;-62
2022/09/06 03:43:22;;;;;;;10.68;9.50;;;16.40;99.90;;;-141.84;66.11;20574.00;5092625;28;20230;-62
2022/09/06 03:45:53;;;;;;;10.88;9.88;;;16.40;99.90;;;-141.84;65.83;20567.91;5092862;28;20184;-63
2022/09/06 03:48:24;;;;;;;10.48;9.48;;;16.40;99.90;;;-141.84;65.77;20610.59;5093030;28;20184;-62
2022/09/06 03:50:56;;;;;;;9.77;8.98;;;16.40;99.90;;;-141.84;65.78;20586.22;5092426;28;20610;-62
2022/09/06 03:53:27;;;;;;;12.90;9.98;;;16.50;99.90;;;-141.84;65.93;20616.69;5091833;28;20266;-62
2022/09/06 03:55:57;;;;;;;10.68;9.68;;;16.40;99.90;;;-141.84;65.22;20584.19;5092516;28;20228;-62
2022/09/06 03:58:30;;;;;;;10.45;9.38;;;16.50;99.90;;;-141.84;65.59;20600.44;5092116;28;20658;-61
2022/09/06 04:01:06;;;;;;;10.52;9.63;;;16.40;99.90;;;-141.84;65.00;20582.16;5092274;28;20219;-61
2022/09/06 04:03:35;;;;;;;10.57;9.60;;;16.40;99.90;;;-141.84;65.63;20582.16;5092706;28;20299;-61
2022/09/06 04:06:05;;;;;;;10.85;9.77;;;16.40;99.90;;;-141.84;65.84;20569.94;5092806;28;20294;-61
2022/09/06 04:08:36;;;;;;;10.25;9.25;;;16.40;99.90;;;-141.84;66.12;20582.16;5092104;28;20311;-62
2022/09/06 04:11:06;;;;;;;11.15;10.07;;;16.40;99.90;;;-141.84;64.92;20600.44;5092433;28;20307;-62
2022/09/06 04:13:35;;;;;;;10.85;9.75;;;16.40;99.90;;;-141.84;65.36;20586.22;5092264;28;20222;-62
2022/09/06 04:16:05;;;;;;;10.63;9.18;;;16.40;99.90;;;-141.84;65.28;20598.41;5092208;28;20285;-62
2022/09/06 04:18:33;;;;;;;10.55;9.55;;;16.40;99.90;;;-141.84;65.02;20571.97;5092518;28;20200;-62
2022/09/06 04:21:01;;;;;;;10.23;9.32;;;16.50;99.90;;;-141.84;64.92;20628.91;5092175;28;20223;-62
2022/09/06 04:23:30;;;;;;;10.50;9.60;;;16.40;99.90;;;-141.84;65.97;20576.03;5091855;28;20251;-61
2022/09/06 04:26:03;;;;;;;11.25;10.15;;;16.40;99.90;;;-141.84;65.28;20602.47;5091952;28;20283;-61
2022/09/06 04:28:31;;;;;;;11.18;10.05;;;16.40;99.90;;;-141.84;65.09;20604.50;5091851;28;20224;-61
2022/09/06 04:31:02;;;;;;;10.85;9.75;;;16.40;99.90;;;-141.84;64.83;20561.81;5092031;28;20303;-62
2022/09/06 04:33:35;;;;;;;10.80;9.75;;;16.50;99.90;;;-141.84;64.75;20669.56;5092164;28;20230;-60
2022/09/06 04:36:07;;;;;;;10.90;9.82;;;16.50;99.90;;;-141.84;64.67;20657.34;5092680;28;20280;-61
2022/09/06 04:38:38;;;;;;;12.40;9.52;;;16.50;99.90;;;-141.84;64.55;20643.13;5091739;28;20224;-61
2022/09/06 04:41:09;;;;;;;11.07;10.00;;;16.50;99.90;;;-141.84;64.00;20675.66;5091891;28;20602;-61
2022/09/06 04:43:37;;;;;;;10.32;9.43;;;16.60;99.90;;;-141.84;64.30;20630.94;5091814;28;20230;-61
2022/09/06 04:46:09;;;;;;;10.73;9.73;;;16.60;99.90;;;-141.84;64.27;20639.06;5091907;28;20216;-61
2022/09/06 04:48:37;;;;;;;12.98;8.93;;;16.60;99.90;;;-141.84;64.95;20622.81;5091680;28;20180;-62
2022/09/06 04:51:06;;;;;;;10.32;9.32;;;16.50;99.90;;;-141.84;64.36;20614.66;5092462;28;20282;-60
2022/09/06 04:53:34;;;;;;;9.88;8.85;;;16.50;99.90;;;-141.84;63.77;20641.09;5091580;28;20227;-62
2022/09/06 04:56:02;;;;;;;10.82;9.73;;;16.60;99.90;;;-141.84;63.47;20665.50;5091583;28;20228;-62
2022/09/06 04:58:32;;;;;;;9.93;8.93;;;16.60;99.90;;;-141.84;63.07;20677.69;5091106;28;20250;-62
2022/09/06 05:01:00;;;;;;;9.57;8.77;;;16.60;99.90;;;-141.84;62.79;20673.63;5091837;28;20219;-62
2022/09/06 05:03:28;;;;;;;9.60;8.43;;;16.70;99.90;;;-141.84;63.01;20659.38;5092654;28;20200;-62
2022/09/06 05:06:08;;;;;;;9.32;8.35;;;16.70;99.90;;;-141.84;63.76;20616.69;5091031;28;20228;-61
2022/09/06 05:08:38;;;;;;;9.43;8.52;;;16.60;99.90;;;-141.84;64.04;20602.47;5091070;28;20219;-61
2022/09/06 05:11:07;;;;;;;9.73;8.90;;;16.50;99.90;;;-141.84;63.85;20608.56;5091045;28;20238;-61
2022/09/06 05:13:38;;;;;;;9.52;8.63;;;16.60;99.90;;;-141.84;63.58;20653.28;5090977;28;20224;-62
2022/09/06 05:16:08;;;;;;;9.88;8.98;;;16.60;99.90;;;-141.84;63.31;20618.72;5091121;28;20314;-62
2022/09/06 05:18:36;;;;;;;9.80;8.82;;;16.60;99.90;;;-141.84;63.57;20647.19;5091347;28;20644;-65
2022/09/06 05:21:06;;;;;;;9.70;8.70;;;16.60;99.90;;;-141.84;63.27;20649.22;5092375;28;20295;-61
2022/09/06 05:23:34;;;;;;;9.73;8.75;;;16.70;99.90;;;-141.84;63.38;20651.25;5091184;28;20325;-61
2022/09/06 05:26:02;;;;;;;9.32;8.43;;;16.70;99.90;;;-141.84;63.62;20594.34;5090940;28;20735;-61
2022/09/06 05:28:30;;;;;;;9.73;8.82;;;16.70;99.90;;;-141.84;64.01;20610.59;5091050;28;20318;-61
2022/09/06 05:31:08;;;;;;;10.00;9.00;;;16.70;99.90;;;-141.84;64.46;20594.34;5091211;28;20273;-60
2022/09/06 05:33:37;;;;;;;10.13;9.13;;;16.70;99.90;;;-141.84;63.64;20661.44;5091299;28;20200;-65
2022/09/06 05:36:07;;;;;;;9.65;8.75;;;16.70;99.90;;;-141.84;64.10;20630.94;5091459;28;20239;-61
2022/09/06 05:38:35;;;;;;;9.55;8.48;;;16.70;99.90;;;-141.84;63.91;20645.16;5090911;28;20234;-61
2022/09/06 05:41:03;;;;;;;9.90;9.00;;;16.80;99.90;;;-141.84;64.04;20655.31;5090701;28;20255;-61
2022/09/06 05:43:31;;;;;;;10.30;9.30;;;16.80;99.90;;;-141.84;63.52;20681.75;5090850;28;20228;-61
2022/09/06 05:45:59;;;;;;;9.98;8.98;;;16.80;99.90;;;-141.84;63.52;20695.97;5090958;28;20311;-62
2022/09/06 05:48:29;;;;;;;9.98;8.98;;;16.90;99.90;;;-141.84;64.31;20641.09;5091577;28;20286;-61
2022/09/06 05:51:07;;;;;;;10.38;9.48;;;16.90;99.90;;;-141.84;63.74;20695.97;5091103;28;20257;-60
2022/09/06 05:53:35;;;;;;;10.90;9.80;;;16.80;99.90;;;-141.84;62.65;20716.31;5090573;28;20595;-67
2022/09/06 05:56:05;;;;;;;9.75;8.85;;;17.00;99.90;;;-141.84;63.33;20698.00;5090626;28;20739;-67
2022/09/06 05:58:33;;;;;;;10.48;9.48;;;16.90;99.90;;;-141.84;63.23;20667.53;5090528;28;20228;-67
2022/09/06 06:01:07;;;;;;;10.57;9.63;;;16.90;99.90;;;-141.84;63.59;20671.59;5090777;28;20220;-66
2022/09/06 06:03:37;;;;;;;10.55;9.55;;;16.90;99.90;;;-141.84;63.58;20655.31;5091508;28;20188;-66
2022/09/06 06:06:06;;;;;;;10.02;9.13;;;16.90;99.90;;;-141.84;63.84;20667.53;5090731;28;20640;-66
2022/09/06 06:08:35;;;;;;;10.10;9.20;;;16.80;99.90;;;-141.84;63.64;20637.03;5090891;28;20311;-67
2022/09/06 06:11:03;;;;;;;10.35;9.35;;;16.90;99.90;;;-141.84;63.13;20683.78;5090135;28;20238;-66
2022/09/06 06:13:33;;;;;;;9.93;9.13;;;16.90;99.90;;;-141.84;62.87;20687.84;5090412;28;20255;-67
2022/09/06 06:16:03;;;;;;;11.45;8.98;;;16.90;99.90;;;-141.84;62.74;20700.03;5090599;28;20307;-67
2022/09/06 06:18:31;;;;;;;10.43;9.02;;;16.90;99.90;;;-141.84;63.11;20706.16;5094599;28;20274;-67
2022/09/06 06:21:13;;;;;;;9.88;9.07;;;16.90;99.90;;;-141.84;62.93;20734.59;5094139;28;20227;-67
2022/09/06 06:23:43;;;;;;;10.60;9.50;;;16.90;99.90;;;-141.84;63.24;20661.44;5094102;28;20224;-66
2022/09/06 06:26:12;;;;;;;9.98;8.98;;;17.00;99.90;;;-141.84;62.87;20724.44;5093713;28;20764;-67
2022/09/06 06:28:41;;;;;;;9.38;8.55;;;17.00;99.90;;;-141.84;63.48;20693.94;5093871;28;20670;-67
2022/09/06 06:31:11;;;;;;;9.82;8.93;;;16.90;99.90;;;-141.84;63.38;20691.91;5094651;28;20227;-67
2022/09/06 06:33:40;;;;;;;9.55;8.57;;;16.90;99.90;;;-141.84;62.82;20718.34;5093862;28;20291;-67
2022/09/06 06:36:23;;;;;;;9.35;8.45;;;17.00;99.90;;;-141.84;61.76;20746.81;5094591;28;20231;-66
2022/09/06 06:38:54;;;;;;;9.55;8.65;;;17.00;99.90;;;-141.84;61.92;20700.03;5093867;28;20224;-66
2022/09/06 06:41:24;;;;;;;9.90;8.98;;;17.10;99.90;;;-141.84;61.80;20728.50;5093544;28;20258;-67
2022/09/06 06:43:53;;;;;;;9.90;8.90;;;17.10;99.90;;;-141.84;61.92;20756.97;5093672;28;20226;-67
2022/09/06 06:46:23;;;;;;;10.32;9.43;;;17.20;99.90;;;-141.84;61.50;20777.28;5093525;28;20303;-67
2022/09/06 06:48:53;;;;;;;9.88;8.80;;;17.20;99.90;;;-141.84;61.86;20752.91;5093686;28;20208;-66
2022/09/06 06:51:27;;;;;;;9.55;8.65;;;17.20;99.90;;;-141.84;62.04;20714.28;5093999;28;20210;-67
2022/09/06 06:53:56;;;;;;;9.82;8.90;;;17.30;99.90;;;-141.84;62.01;20746.81;5093582;28;20227;-68
2022/09/06 06:56:27;;;;;;;12.18;9.13;;;17.30;99.90;;;-141.84;61.75;20730.53;5092511;28;20302;-68
2022/09/06 06:58:58;;;;;;;9.95;9.05;;;17.40;99.90;;;-141.84;61.64;20809.81;5091481;28;20224;-64
2022/09/06 07:01:29;;;;;;;9.63;8.60;;;17.50;99.90;;;-141.84;61.35;20811.84;5093148;28;20663;-76
2022/09/06 07:03:59;;;;;;;9.75;8.90;;;17.60;99.90;;;-141.84;60.40;20889.09;5092866;28;20231;-70
2022/09/06 07:06:29;;;;;;;9.55;8.75;;;17.70;99.90;;;-141.84;59.95;20856.56;5093765;28;20222;-70
2022/09/06 07:09:19;;;;;;;10.75;9.23;;;17.80;99.90;;;-141.84;59.77;20870.81;5091556;28;20226;-69
2022/09/06 07:11:48;;;;;;;9.45;8.52;;;18.00;99.90;;;-141.84;58.97;20903.34;5092832;28;20263;-70
2022/09/06 07:14:17;;;;;;;13.15;9.48;;;18.10;99.90;;;-141.84;58.51;20986.69;5093061;28;20303;-69
2022/09/06 07:16:46;;;;;;;9.70;8.82;;;18.20;99.90;;;-141.84;58.12;20939.94;5092884;28;20658;-71
2022/09/06 07:19:14;;;;;;;10.52;9.45;;;18.30;99.90;;;-141.84;57.95;20994.81;5093237;28;20219;-70
2022/09/06 07:22:03;;;;;;;11.10;8.80;;;18.30;99.90;;;-141.84;58.64;20944.00;5092569;28;20251;-64
2022/09/06 07:24:33;;;;;;;9.52;8.50;;;18.30;99.90;;;-141.84;58.43;20980.59;5093156;28;20586;-71
2022/09/06 07:27:01;;;;;;;9.07;8.15;;;18.30;99.90;;;-141.84;57.55;20996.84;5092741;28;20539;-71
2022/09/06 07:29:49;;;;;;;9.93;8.93;;;18.50;99.90;;;-141.84;57.40;21004.97;5091530;28;20223;-69
2022/09/06 07:32:17;;;;;;;9.32;8.35;;;18.50;99.90;;;-141.84;57.62;21043.59;5092302;28;20267;-67
2022/09/06 07:34:46;;;;;;;9.80;8.90;;;18.60;99.90;;;-141.84;56.79;21080.19;5092542;28;20722;-66
2022/09/06 07:37:15;;;;;;;10.30;9.30;;;18.70;99.90;;;-141.84;56.38;21098.50;5092295;28;20310;-66
2022/09/06 07:39:43;;;;;;;11.40;8.73;;;18.80;99.90;;;-141.84;56.26;21084.28;5092292;28;20215;-67
2022/09/06 07:42:11;;;;;;;9.93;9.02;;;19.00;99.90;;;-141.84;56.83;21118.84;5092183;28;20203;-63
2022/09/06 07:44:39;;;;;;;10.00;9.02;;;19.10;99.90;;;-141.84;55.23;21192.03;5092351;28;20231;-63
2022/09/06 07:47:09;;;;;;;10.10;9.18;;;19.20;99.90;;;-141.84;55.12;21159.50;5091653;28;20749;-64
2022/09/06 07:49:57;;;;;;;10.23;9.15;;;19.30;99.90;;;-141.84;55.86;21112.72;5092028;28;20232;-62
2022/09/06 07:52:46;;;;;;;10.25;8.75;;;19.20;99.90;;;-141.84;55.32;21167.63;5092347;28;20235;-65
2022/09/06 07:55:34;;;;;;;9.20;8.40;;;19.20;99.90;;;-141.84;54.91;21179.81;5091807;28;20224;-65
2022/09/06 07:58:02;;;;;;;10.32;9.30;;;19.30;99.90;;;-141.84;54.96;21187.97;5092029;28;20220;-67
2022/09/06 08:00:30;;;;;;;10.65;9.27;;;19.40;99.90;;;-141.84;54.34;21257.09;5092826;28;20231;-65
2022/09/06 08:02:59;;;;;;;10.10;9.10;;;19.40;99.90;;;-141.84;54.03;21253.00;5092096;28;20236;-65
2022/09/06 08:05:27;;;;;;;10.20;9.27;;;19.60;99.90;;;-141.84;54.15;21285.53;5092263;28;20232;-65
2022/09/06 08:08:16;;;;;;;9.55;8.63;;;19.50;99.90;;;-141.84;54.50;21208.28;5091896;28;20219;-66
2022/09/06 08:11:06;;;;;;;11.43;9.23;;;19.50;99.90;;;-141.84;54.22;21216.41;5091433;28;20223;-64
2022/09/06 08:13:35;;;;;;;9.93;9.02;;;19.60;99.90;;;-141.84;54.38;21222.53;5091558;28;20230;-66
2022/09/06 08:16:05;;;;;;;9.77;8.68;;;19.60;99.90;;;-141.84;53.97;21250.97;5091473;28;20254;-66
2022/09/06 08:18:35;;;;;;;9.57;8.68;;;19.60;99.90;;;-141.84;54.01;21253.00;5092483;28;20677;-63
2022/09/06 08:21:09;;;;;;;11.30;9.07;;;19.70;99.90;;;-141.84;53.64;21285.53;5092099;28;20302;-64
2022/09/06 08:23:46;;;;;;;10.30;9.20;;;19.80;99.90;;;-141.84;53.16;21273.34;5091566;28;20253;-63
2022/09/06 08:26:14;;;;;;;10.20;9.18;;;19.90;99.90;;;-141.84;53.14;21346.53;5091264;28;20280;-62
2022/09/06 08:28:43;;;;;;;9.80;8.98;;;19.90;99.90;;;-141.84;53.33;21318.06;5090789;28;20254;-62
2022/09/06 08:31:13;;;;;;;10.10;9.05;;;20.00;99.90;;;-141.84;53.23;21320.09;5091411;28;20719;-62
2022/09/06 08:33:42;;;;;;;10.77;9.55;;;20.10;99.90;;;-141.84;52.87;21354.66;5091448;28;20671;-62
2022/09/06 08:36:11;;;;;;;9.65;8.65;;;20.00;99.90;;;-141.84;52.70;21366.88;5091741;28;20690;-62
2022/09/06 08:38:41;;;;;;;9.95;8.95;;;20.10;99.90;;;-141.84;53.02;21375.00;5091108;28;20314;-63
2022/09/06 08:41:18;;;;;;;10.50;9.45;;;20.20;99.90;;;-141.84;53.15;21370.94;5090891;28;20278;-65
2022/09/06 08:43:54;;;;;;;10.75;9.65;;;20.10;99.90;;;-141.84;54.08;21338.41;5090824;28;20223;-63
2022/09/06 08:46:51;;;;;;;11.10;9.13;;;20.10;99.90;;;-141.84;53.50;21346.53;5091177;28;20247;-64
2022/09/06 08:49:20;;;;;;;10.25;9.20;;;20.20;99.90;;;-141.84;53.44;21322.13;5091393;28;20272;-62
2022/09/06 08:52:17;;;;;;;10.98;9.45;;;20.20;99.90;;;-141.84;52.49;21401.44;5091436;28;20291;-65
2022/09/06 08:54:55;;;;;;;11.77;10.13;;;20.40;99.90;;;-141.84;51.77;21509.19;5091233;28;20184;-62
2022/09/06 08:57:45;;;;;;;11.00;8.90;;;20.70;99.90;;;-141.84;51.52;21553.94;5090813;28;20207;-63
2022/09/06 09:00:14;;;;;;;10.77;9.70;;;20.90;99.90;;;-141.84;50.21;21686.09;5091456;28;20196;-62
2022/09/06 09:02:51;;;;;;;11.25;9.65;;;21.30;99.90;;;-141.84;50.31;21655.59;5090976;28;20242;-61
2022/09/06 09:05:29;;;;;;;11.02;10.00;;;21.40;99.90;;;-141.84;50.30;21647.47;5091330;28;20298;-69
2022/09/06 09:08:13;;;;;;;11.05;10.05;;;21.30;99.90;;;-141.84;50.71;21584.44;5090895;28;20237;-68
2022/09/06 09:10:48;;;;;;;16.05;10.15;;;21.30;99.90;;;-141.84;51.22;21531.56;5070991;28;20228;-68
2022/09/06 09:13:29;;;;;;;12.23;10.98;;;21.20;99.90;;;-141.84;52.74;21452.25;5070724;28;20230;-68
2022/09/06 09:15:58;;;;;;;11.75;10.57;;;21.00;99.90;;;-141.84;53.13;21462.44;5070680;28;20912;-67
2022/09/06 09:18:32;;;;;;;12.55;11.35;;;20.90;99.90;;;-141.84;52.57;21570.19;5078890;28;20220;-70
2022/09/06 09:21:00;;;;;;;11.75;10.38;;;21.00;99.90;;;-141.84;50.96;21663.72;5088399;28;20215;-69
2022/09/06 09:23:30;;;;;;;12.73;10.70;;;21.30;99.90;;;-141.84;51.03;21659.66;5090810;28;20310;-70
2022/09/06 09:26:05;;;;;;;12.77;10.27;;;21.60;99.90;;;-141.84;50.61;21734.88;5090778;28;20734;-70
2022/09/06 09:28:34;;;;;;;14.55;10.63;;;21.80;99.90;;;-141.84;50.50;21720.66;5090785;28;20306;-70
2022/09/06 09:31:02;;;;;;;12.27;11.05;;;22.00;99.90;;;-141.84;50.56;21688.13;5091059;28;20224;-65
2022/09/06 09:33:35;;;;;;;11.45;10.43;;;22.00;99.90;;;-141.84;50.36;21747.09;5091207;28;20235;-63
2022/09/06 09:36:10;;;;;;;13.43;12.00;;;22.00;99.90;;;-141.84;50.74;21692.19;5091122;28;20212;-65
2022/09/06 09:38:44;;;;;;;11.85;10.75;;;22.10;99.90;;;-141.84;50.84;21712.53;5090373;28;20231;-65
2022/09/06 09:41:29;;;;;;;11.15;10.00;;;22.10;99.90;;;-141.84;50.94;21716.59;5090657;28;20220;-66
2022/09/06 09:44:00;;;;;;;11.48;10.27;;;22.20;99.90;;;-141.84;50.90;21745.06;5090632;28;20307;-66
2022/09/06 09:46:34;;;;;;;11.10;9.98;;;22.20;99.90;;;-141.84;50.59;21753.19;5090774;28;20238;-75
2022/09/06 09:49:10;;;;;;;11.88;10.63;;;22.30;99.90;;;-141.84;50.62;21777.59;5091057;28;20247;-70
2022/09/06 09:51:40;;;;;;;10.98;9.80;;;22.40;99.90;;;-141.84;50.31;21804.03;5092121;28;20184;-68
2022/09/06 09:54:11;;;;;;;12.80;10.93;;;22.50;99.90;;;-141.84;50.41;21769.47;5094715;28;20208;-67
2022/09/06 09:56:48;;;;;;;10.98;9.95;;;22.40;99.90;;;-141.84;50.76;21785.72;5093278;28;20224;-67
2022/09/06 09:59:25;;;;;;;9.88;8.93;;;22.50;99.90;;;-141.84;50.64;21791.81;5074144;28;20227;-71
2022/09/06 10:01:58;;;;;;;10.57;9.50;;;22.50;99.90;;;-141.84;50.77;21745.06;5081264;28;20239;-69
2022/09/06 10:04:40;;;;;;;11.88;9.32;;;22.50;99.90;;;-141.84;50.66;21777.59;5092430;28;20330;-69
2022/09/06 10:07:17;;;;;;;10.60;9.63;;;22.50;99.90;;;-141.84;50.57;21785.72;5078353;28;20222;-69
2022/09/06 10:09:48;;;;;;;10.25;9.07;;;22.60;99.90;;;-141.84;50.83;21771.50;5094021;28;20196;-68
2022/09/06 10:12:28;;;;;;;10.80;9.05;;;22.60;99.90;;;-141.84;50.72;21875.19;5095062;28;20188;-67
2022/09/06 10:14:57;;;;;;;10.38;9.05;;;22.80;99.90;;;-141.84;51.13;21856.91;5094288;28;20740;-67
2022/09/06 10:17:33;;;;;;;9.88;8.88;;;22.80;99.90;;;-141.84;50.47;21881.28;5094676;28;20224;-66
2022/09/06 10:20:08;;;;;;;9.38;8.38;;;22.90;99.90;;;-141.84;50.51;21838.59;5091771;28;20219;-67
2022/09/06 10:22:51;;;;;;;9.80;9.00;;;22.90;99.90;;;-141.84;50.51;21879.25;5093619;28;20702;-66
2022/09/06 10:25:45;;;;;;;9.88;8.90;;;23.00;99.90;;;-141.84;50.15;21915.88;5093857;28;20227;-68